Time;durP1;ratioP1;P1;durP2;ratioP2;P2;SDS_P1;SDS_P2;PMS_P1;PMS_P2;Temp;Humidity;BMP_temperature;BMP_pressure;BME280_temperature;BME280_humidity;BME280_pressure;Samples;Min_cycle;Max_cycle;Signal;HPM_P1;HPM_P2
2020/12/29 00:01:33;;;;;;;6.83;6.23;;;1.10;99.90;;;;;;5017272;28;20175;-79
2020/12/29 00:03:59;;;;;;;6.23;5.73;;;1.10;99.90;;;;;;5017502;28;20210;-79
2020/12/29 00:06:25;;;;;;;6.83;6.10;;;1.10;99.90;;;;;;5020435;28;20262;-79
2020/12/29 00:08:51;;;;;;;6.57;6.07;;;1.10;99.90;;;;;;5022085;28;20255;-79
2020/12/29 00:11:17;;;;;;;6.27;5.77;;;1.00;99.90;;;;;;5020145;28;20649;-79
2020/12/29 00:13:43;;;;;;;6.47;5.87;;;1.20;99.90;;;;;;5020761;28;20238;-79
2020/12/29 00:16:08;;;;;;;6.43;5.93;;;0.90;99.90;;;;;;5020035;28;20178;-79
2020/12/29 00:18:37;;;;;;;6.93;6.37;;;0.80;99.90;;;;;;5020209;28;20662;-78
2020/12/29 00:21:03;;;;;;;7.47;6.77;;;0.90;99.90;;;;;;5021646;28;20175;-79
2020/12/29 00:23:29;;;;;;;7.67;7.07;;;0.90;99.90;;;;;;5020839;28;20186;-79
2020/12/29 00:25:55;;;;;;;7.63;6.93;;;0.80;99.90;;;;;;5021170;28;20217;-79
2020/12/29 00:28:21;;;;;;;6.27;5.67;;;0.80;99.90;;;;;;5020341;28;20661;-79
2020/12/29 00:30:46;;;;;;;5.80;5.40;;;0.90;99.90;;;;;;5022877;28;20179;-78
2020/12/29 00:33:14;;;;;;;5.83;5.37;;;0.90;99.90;;;;;;5020684;28;20520;-79
2020/12/29 00:35:39;;;;;;;5.70;5.20;;;1.00;99.90;;;;;;5020905;28;20183;-79
2020/12/29 00:38:05;;;;;;;5.77;5.37;;;1.00;99.90;;;;;;5019487;28;20206;-79
2020/12/29 00:40:31;;;;;;;5.40;4.90;;;1.00;99.90;;;;;;5020611;28;20637;-79
2020/12/29 00:42:57;;;;;;;6.27;5.73;;;1.00;99.90;;;;;;5020390;28;20194;-79
2020/12/29 00:45:23;;;;;;;6.67;6.07;;;1.10;99.90;;;;;;5019675;28;20210;-79
2020/12/29 00:47:49;;;;;;;5.50;4.97;;;1.10;99.90;;;;;;5020137;28;20185;-78
2020/12/29 00:50:14;;;;;;;5.40;5.00;;;1.10;99.90;;;;;;5020325;28;20178;-79
2020/12/29 00:52:40;;;;;;;5.00;4.50;;;1.20;99.90;;;;;;5020686;28;20187;-79
2020/12/29 00:55:06;;;;;;;4.37;4.07;;;1.10;99.90;;;;;;5019197;28;20261;-78
2020/12/29 00:57:32;;;;;;;2.80;2.47;;;1.20;99.90;;;;;;5018114;28;20269;-77
2020/12/29 00:59:58;;;;;;;3.53;2.60;;;1.40;99.90;;;;;;5017200;28;20557;-77
2020/12/29 01:02:24;;;;;;;4.17;2.40;;;1.50;99.90;;;;;;5018012;28;20261;-78
2020/12/29 01:04:50;;;;;;;3.73;2.80;;;1.60;99.90;;;;;;5017731;28;20241;-78
2020/12/29 01:07:15;;;;;;;3.47;2.80;;;1.70;99.90;;;;;;5016826;28;20258;-78
2020/12/29 01:09:41;;;;;;;3.33;2.37;;;1.80;99.90;;;;;;5017762;28;20176;-78
2020/12/29 01:12:06;;;;;;;2.20;2.00;;;1.80;99.90;;;;;;5017692;28;20175;-78
2020/12/29 01:14:32;;;;;;;2.00;1.90;;;1.80;99.90;;;;;;5017543;28;20223;-78
2020/12/29 01:16:58;;;;;;;2.07;1.70;;;1.80;99.90;;;;;;5017957;28;20175;-78
2020/12/29 01:19:24;;;;;;;2.70;1.80;;;1.80;99.90;;;;;;5018044;28;20219;-78
2020/12/29 01:21:52;;;;;;;1.63;1.53;;;1.80;99.90;;;;;;5017635;28;20190;-78
2020/12/29 01:24:19;;;;;;;1.50;1.40;;;1.80;99.90;;;;;;5017286;28;20206;-78
2020/12/29 01:26:44;;;;;;;2.73;2.17;;;1.90;99.90;;;;;;5016445;28;20179;-78
2020/12/29 01:29:10;;;;;;;2.17;1.97;;;1.80;99.90;;;;;;5017905;28;20234;-79
2020/12/29 01:31:36;;;;;;;1.60;1.50;;;1.80;99.90;;;;;;5017529;28;20653;-78
2020/12/29 01:34:02;;;;;;;1.90;1.70;;;1.80;99.90;;;;;;5017982;28;20229;-78
2020/12/29 01:36:29;;;;;;;2.80;1.93;;;1.80;99.90;;;;;;5017823;28;20194;-78
2020/12/29 01:38:55;;;;;;;1.70;1.60;;;1.90;99.90;;;;;;5016063;28;20195;-78
2020/12/29 01:41:22;;;;;;;2.53;1.80;;;1.90;99.90;;;;;;5017616;28;20179;-78
2020/12/29 01:43:49;;;;;;;1.70;1.60;;;2.00;99.90;;;;;;5017365;28;20235;-78
2020/12/29 01:46:15;;;;;;;1.50;1.40;;;2.00;99.90;;;;;;5015840;28;20587;-78
2020/12/29 01:48:41;;;;;;;1.87;1.30;;;2.00;99.90;;;;;;5017203;28;20175;-78
2020/12/29 01:51:08;;;;;;;1.87;1.50;;;2.10;99.90;;;;;;5017167;28;20183;-78
2020/12/29 01:53:34;;;;;;;1.63;1.23;;;2.20;99.90;;;;;;5017188;28;20191;-79
2020/12/29 01:56:01;;;;;;;1.80;1.40;;;2.20;99.90;;;;;;5032350;28;20178;-79
2020/12/29 01:58:27;;;;;;;1.23;1.13;;;2.30;99.90;;;;;;5015984;28;20249;-78
2020/12/29 02:00:53;;;;;;;1.70;1.60;;;2.30;99.90;;;;;;5016925;28;20179;-78
2020/12/29 02:03:19;;;;;;;1.60;1.50;;;2.30;99.90;;;;;;5015715;28;20171;-77
2020/12/29 02:05:48;;;;;;;2.47;1.77;;;2.40;99.90;;;;;;5017132;28;20186;-78
2020/12/29 02:08:14;;;;;;;3.03;1.43;;;2.50;99.90;;;;;;5016819;28;20179;-78
2020/12/29 02:10:43;;;;;;;2.10;1.50;;;2.60;99.90;;;;;;5016930;28;20191;-78
2020/12/29 02:13:09;;;;;;;2.47;1.53;;;2.60;99.90;;;;;;5016280;28;20175;-78
2020/12/29 02:15:35;;;;;;;1.57;1.10;;;2.60;99.90;;;;;;5016400;28;20641;-78
2020/12/29 02:18:01;;;;;;;2.07;1.10;;;2.70;99.90;;;;;;5016468;28;20213;-78
2020/12/29 02:20:27;;;;;;;1.20;1.10;;;2.70;99.90;;;;;;5016839;28;20199;-78
2020/12/29 02:22:53;;;;;;;2.70;0.70;;;2.80;99.90;;;;;;5018848;28;20206;-78
2020/12/29 02:25:19;;;;;;;1.50;0.60;;;2.90;99.90;;;;;;5016610;28;20191;-78
2020/12/29 02:27:47;;;;;;;0.60;0.60;;;3.20;99.90;;;;;;5015028;28;20310;-78
2020/12/29 02:30:15;;;;;;;2.50;0.70;;;3.10;99.90;;;;;;5016548;28;20179;-78
2020/12/29 02:32:40;;;;;;;2.53;0.93;;;3.20;99.90;;;;;;5017521;28;20214;-78
2020/12/29 02:35:10;;;;;;;1.27;0.40;;;3.20;99.90;;;;;;5017549;28;20618;-78
2020/12/29 02:37:36;;;;;;;2.70;0.67;;;3.30;99.90;;;;;;5017567;28;20209;-79
2020/12/29 02:40:04;;;;;;;1.07;0.63;;;3.30;99.90;;;;;;5015997;28;20270;-78
2020/12/29 02:42:29;;;;;;;1.57;0.40;;;3.40;99.90;;;;;;5018010;28;20294;-79
2020/12/29 02:44:55;;;;;;;1.03;0.57;;;3.40;99.90;;;;;;5017474;28;20226;-78
2020/12/29 02:47:21;;;;;;;1.97;0.53;;;3.50;99.90;;;;;;5011596;28;20400;-78
2020/12/29 02:49:46;;;;;;;1.50;0.50;;;3.50;99.90;;;;;;5013899;28;20194;-78
2020/12/29 02:52:12;;;;;;;0.80;0.40;;;3.50;99.90;;;;;;5014345;28;20186;-78
2020/12/29 02:54:38;;;;;;;2.37;0.63;;;3.60;99.90;;;;;;5015503;28;20195;-78
2020/12/29 02:57:04;;;;;;;3.40;0.80;;;3.50;99.90;;;;;;5017158;28;20179;-78
2020/12/29 02:59:30;;;;;;;2.23;0.40;;;3.50;99.90;;;;;;5017430;28;20187;-78
2020/12/29 03:01:57;;;;;;;0.83;0.50;;;3.50;99.90;;;;;;5016632;28;20190;-79
2020/12/29 03:04:23;;;;;;;1.27;0.50;;;3.40;99.90;;;;;;5015711;28;20210;-77
2020/12/29 03:06:48;;;;;;;1.27;0.40;;;3.50;99.90;;;;;;5014658;28;20178;-78
2020/12/29 03:09:15;;;;;;;0.50;0.30;;;3.60;99.90;;;;;;5016136;28;20211;-77
2020/12/29 03:11:42;;;;;;;1.27;0.60;;;3.40;99.90;;;;;;5015132;28;20228;-78
2020/12/29 03:14:09;;;;;;;2.13;0.60;;;3.60;99.90;;;;;;5016236;28;20207;-78
2020/12/29 03:16:36;;;;;;;1.33;0.57;;;3.60;99.90;;;;;;5016362;28;20179;-78
2020/12/29 03:19:03;;;;;;;0.60;0.40;;;3.60;99.90;;;;;;5016005;28;20226;-77
2020/12/29 03:21:29;;;;;;;2.30;0.40;;;3.60;99.90;;;;;;5016509;28;20542;-78
2020/12/29 03:23:55;;;;;;;1.83;0.50;;;3.50;99.90;;;;;;5015449;28;20202;-78
2020/12/29 03:26:21;;;;;;;2.23;0.77;;;3.60;99.90;;;;;;5015019;28;20656;-78
2020/12/29 03:28:47;;;;;;;1.47;0.60;;;3.70;99.90;;;;;;5016294;28;20186;-78
2020/12/29 03:31:13;;;;;;;1.70;0.67;;;3.70;99.90;;;;;;5014895;28;20188;-78
2020/12/29 03:33:38;;;;;;;2.43;0.70;;;3.60;99.90;;;;;;5015985;28;20341;-78
2020/12/29 03:36:04;;;;;;;1.17;0.43;;;3.70;99.90;;;;;;5015825;28;20225;-78
2020/12/29 03:38:30;;;;;;;1.30;0.40;;;3.80;99.90;;;;;;5015798;28;20294;-78
2020/12/29 03:40:56;;;;;;;0.80;0.30;;;3.80;99.90;;;;;;5018215;28;20223;-78
2020/12/29 03:43:23;;;;;;;2.60;0.50;;;3.80;99.90;;;;;;5020016;28;20265;-78
2020/12/29 03:45:50;;;;;;;4.10;0.53;;;3.90;99.90;;;;;;5020079;28;20175;-77
2020/12/29 03:48:18;;;;;;;3.00;0.93;;;3.90;99.90;;;;;;5023067;28;20179;-78
2020/12/29 03:50:44;;;;;;;1.43;0.50;;;3.80;99.90;;;;;;5019856;28;20183;-78
2020/12/29 03:53:10;;;;;;;4.13;0.67;;;3.80;99.90;;;;;;5019798;28;20680;-78
2020/12/29 03:55:37;;;;;;;1.90;0.60;;;3.90;99.90;;;;;;5018721;28;20218;-78
2020/12/29 03:58:04;;;;;;;3.17;0.50;;;3.90;99.90;;;;;;5020306;28;20234;-78
2020/12/29 04:00:30;;;;;;;2.33;0.60;;;3.90;99.90;;;;;;5019971;28;20206;-78
2020/12/29 04:02:57;;;;;;;3.73;0.80;;;4.00;99.90;;;;;;5021515;28;20188;-78
2020/12/29 04:05:23;;;;;;;1.90;0.40;;;4.00;99.90;;;;;;5020197;28;20216;-78
2020/12/29 04:07:49;;;;;;;1.30;0.57;;;4.10;99.90;;;;;;5019451;28;20194;-78
2020/12/29 04:10:15;;;;;;;2.43;0.60;;;4.20;99.90;;;;;;5019829;28;20184;-78
2020/12/29 04:12:41;;;;;;;1.23;0.40;;;4.20;99.90;;;;;;5018218;28;20266;-78
2020/12/29 04:15:07;;;;;;;3.93;0.57;;;4.10;99.90;;;;;;5019729;28;20285;-78
2020/12/29 04:17:38;;;;;;;2.70;0.90;;;4.20;99.90;;;;;;5019362;28;20199;-78
2020/12/29 04:20:06;;;;;;;3.97;0.67;;;4.20;99.90;;;;;;5019218;28;20194;-78
2020/12/29 04:22:32;;;;;;;1.07;0.50;;;4.20;99.90;;;;;;5019278;28;20599;-78
2020/12/29 04:24:59;;;;;;;1.50;0.70;;;4.10;99.90;;;;;;5021456;28;20198;-78
2020/12/29 04:27:26;;;;;;;3.03;0.80;;;4.10;99.90;;;;;;5019307;28;20236;-78
2020/12/29 04:29:52;;;;;;;3.93;0.60;;;4.20;99.90;;;;;;5018697;28;20197;-78
2020/12/29 04:32:19;;;;;;;2.20;0.50;;;4.20;99.90;;;;;;5018996;28;20230;-78
2020/12/29 04:34:46;;;;;;;3.80;0.70;;;4.20;99.90;;;;;;5018741;28;20187;-78
2020/12/29 04:37:15;;;;;;;5.63;1.00;;;4.10;99.90;;;;;;5018594;28;20171;-78
2020/12/29 04:39:41;;;;;;;2.17;0.70;;;4.10;99.90;;;;;;5019100;28;20663;-78
2020/12/29 04:42:13;;;;;;;2.40;0.70;;;4.10;99.90;;;;;;5017132;28;20187;-78
2020/12/29 04:44:40;;;;;;;4.27;0.70;;;4.10;99.90;;;;;;5018896;28;20558;-78
2020/12/29 04:47:11;;;;;;;1.93;0.53;;;4.10;99.90;;;;;;5022991;28;20171;-78
2020/12/29 04:49:37;;;;;;;1.80;0.50;;;4.10;99.90;;;;;;5022631;28;20176;-78
2020/12/29 04:52:08;;;;;;;2.17;0.60;;;4.10;99.90;;;;;;5022009;28;20180;-78
2020/12/29 04:54:39;;;;;;;2.13;0.63;;;4.10;99.90;;;;;;5021972;28;20242;-78
2020/12/29 04:57:07;;;;;;;2.93;0.70;;;4.20;99.90;;;;;;5019341;28;20180;-78
2020/12/29 04:59:33;;;;;;;2.43;1.20;;;4.20;99.90;;;;;;5015863;28;20290;-78
2020/12/29 05:02:00;;;;;;;2.93;0.80;;;4.20;99.90;;;;;;5014550;28;20176;-78
2020/12/29 05:04:28;;;;;;;2.17;0.60;;;4.20;99.90;;;;;;5015745;28;20218;-78
2020/12/29 05:06:54;;;;;;;1.07;0.67;;;4.20;99.90;;;;;;5011083;28;20630;-78
2020/12/29 05:09:21;;;;;;;1.27;0.57;;;4.20;99.90;;;;;;5015770;28;20191;-77
2020/12/29 05:11:47;;;;;;;2.83;0.50;;;4.30;99.90;;;;;;5015697;28;20180;-78
2020/12/29 05:14:13;;;;;;;1.47;0.77;;;4.30;99.90;;;;;;5017018;28;20195;-78
2020/12/29 05:16:40;;;;;;;2.93;0.50;;;4.20;99.90;;;;;;5016133;28;20184;-78
2020/12/29 05:19:11;;;;;;;2.60;0.50;;;4.30;99.90;;;;;;5017045;28;20214;-78
2020/12/29 05:21:38;;;;;;;2.00;0.40;;;4.20;99.90;;;;;;5017132;28;20187;-78
2020/12/29 05:24:21;;;;;;;4.03;0.60;;;4.20;99.90;;;;;;5016742;28;20544;-78
2020/12/29 05:26:57;;;;;;;1.07;0.43;;;4.10;99.90;;;;;;5016701;28;20254;-78
2020/12/29 05:29:25;;;;;;;2.57;0.60;;;4.10;99.90;;;;;;5015347;28;20255;-78
2020/12/29 05:31:51;;;;;;;3.70;0.60;;;4.10;99.90;;;;;;5016553;28;20186;-78
2020/12/29 05:34:22;;;;;;;1.00;0.43;;;4.20;99.90;;;;;;5015488;28;20709;-78
2020/12/29 05:36:49;;;;;;;1.03;0.57;;;4.10;99.90;;;;;;5017315;28;20267;-78
2020/12/29 05:39:16;;;;;;;4.10;0.60;;;4.10;99.90;;;;;;5016699;28;20282;-78
2020/12/29 05:41:44;;;;;;;0.90;0.30;;;4.10;99.90;;;;;;5016686;28;20176;-78
2020/12/29 05:44:21;;;;;;;1.07;0.60;;;4.30;99.90;;;;;;5016898;28;20273;-78
2020/12/29 05:46:47;;;;;;;1.50;0.40;;;4.10;99.90;;;;;;5017492;28;20535;-78
2020/12/29 05:49:12;;;;;;;0.87;0.50;;;4.00;99.90;;;;;;5016549;28;20179;-78
2020/12/29 05:51:42;;;;;;;1.60;0.70;;;4.00;99.90;;;;;;5017434;28;20657;-78
2020/12/29 05:54:09;;;;;;;3.27;0.70;;;4.00;99.90;;;;;;5017092;28;20622;-78
2020/12/29 05:56:35;;;;;;;4.57;0.50;;;4.00;99.90;;;;;;5015066;28;20180;-78
2020/12/29 05:59:03;;;;;;;2.63;0.50;;;4.00;99.90;;;;;;5016022;28;20673;-78
2020/12/29 06:01:46;;;;;;;1.37;0.53;;;4.20;99.90;;;;;;5015186;28;20529;-78
2020/12/29 06:04:12;;;;;;;6.77;0.90;;;4.10;99.90;;;;;;5015523;28;20215;-78
2020/12/29 06:06:40;;;;;;;1.17;0.40;;;4.20;99.90;;;;;;5014884;28;20179;-78
2020/12/29 06:09:10;;;;;;;1.10;0.53;;;4.20;99.90;;;;;;5016238;28;20210;-78
2020/12/29 06:11:46;;;;;;;1.37;0.60;;;4.20;99.90;;;;;;5016196;28;20182;-77
2020/12/29 06:14:17;;;;;;;2.93;0.60;;;4.20;99.90;;;;;;5016400;28;20282;-78
2020/12/29 06:16:44;;;;;;;0.87;0.40;;;4.10;99.90;;;;;;5016250;28;20196;-77
2020/12/29 06:19:30;;;;;;;2.33;0.67;;;4.20;99.90;;;;;;5016303;28;20212;-78
2020/12/29 06:22:12;;;;;;;0.87;0.47;;;4.10;99.90;;;;;;5014514;28;20192;-78
2020/12/29 06:24:43;;;;;;;4.47;0.60;;;4.10;99.90;;;;;;5015709;28;20191;-78
2020/12/29 06:27:10;;;;;;;4.63;0.50;;;4.20;99.90;;;;;;5017150;28;20172;-78
2020/12/29 06:29:40;;;;;;;1.67;0.40;;;4.00;99.90;;;;;;5017940;28;20575;-78
2020/12/29 06:32:19;;;;;;;1.53;0.40;;;4.00;99.90;;;;;;5016767;28;20180;-78
2020/12/29 06:34:45;;;;;;;1.33;0.70;;;4.00;99.90;;;;;;5017023;28;20187;-78
2020/12/29 06:37:26;;;;;;;2.10;0.60;;;4.00;99.90;;;;;;5016333;28;20190;-78
2020/12/29 06:39:57;;;;;;;0.77;0.40;;;4.00;99.90;;;;;;5016640;28;20176;-78
2020/12/29 06:42:23;;;;;;;2.50;0.80;;;4.10;99.90;;;;;;5015895;28;20723;-77
2020/12/29 06:44:53;;;;;;;2.07;0.60;;;4.00;99.90;;;;;;5016107;28;20231;-78
2020/12/29 06:47:22;;;;;;;1.67;0.50;;;4.00;99.90;;;;;;5017248;28;20173;-78
2020/12/29 06:49:47;;;;;;;0.97;0.60;;;4.00;99.90;;;;;;5014883;28;20191;-77
2020/12/29 06:52:23;;;;;;;1.73;0.67;;;3.90;99.90;;;;;;5016573;28;20180;-77
2020/12/29 06:54:52;;;;;;;2.50;0.70;;;4.00;99.90;;;;;;5014680;28;20658;-78
2020/12/29 06:57:34;;;;;;;1.20;0.77;;;4.00;99.90;;;;;;5015594;28;20187;-77
2020/12/29 07:00:11;;;;;;;2.30;0.60;;;4.00;99.90;;;;;;5016210;28;20189;-78
2020/12/29 07:02:39;;;;;;;2.20;0.67;;;4.00;99.90;;;;;;5015290;28;20183;-77
2020/12/29 07:05:15;;;;;;;1.33;0.60;;;4.00;99.90;;;;;;5016067;28;20219;-78
2020/12/29 07:07:53;;;;;;;3.50;0.73;;;3.90;99.90;;;;;;5015510;28;20186;-77
2020/12/29 07:10:19;;;;;;;1.70;0.63;;;4.00;99.90;;;;;;5016090;28;20186;-78
2020/12/29 07:12:50;;;;;;;1.93;0.63;;;3.90;99.90;;;;;;5015715;28;20183;-78
2020/12/29 07:15:23;;;;;;;2.50;0.50;;;3.90;99.90;;;;;;5018737;28;20606;-78
2020/12/29 07:18:01;;;;;;;3.03;0.73;;;3.80;99.90;;;;;;5020065;28;20202;-78
2020/12/29 07:20:34;;;;;;;1.47;0.50;;;3.70;99.90;;;;;;5019943;28;20168;-78
2020/12/29 07:23:07;;;;;;;3.40;0.97;;;3.70;99.90;;;;;;5020304;28;20171;-78
2020/12/29 07:25:35;;;;;;;1.63;0.83;;;3.60;99.90;;;;;;5020679;28;20229;-78
2020/12/29 07:28:04;;;;;;;2.43;0.70;;;3.60;99.90;;;;;;5020229;28;20234;-78
2020/12/29 07:30:32;;;;;;;1.47;0.77;;;3.60;99.90;;;;;;5018388;28;20222;-78
2020/12/29 07:33:04;;;;;;;1.37;0.80;;;3.60;99.90;;;;;;5018356;28;20184;-78
2020/12/29 07:35:32;;;;;;;2.27;0.90;;;3.60;99.90;;;;;;5018461;28;20187;-78
2020/12/29 07:38:02;;;;;;;1.47;0.80;;;3.50;99.90;;;;;;5018564;28;20200;-78
2020/12/29 07:40:28;;;;;;;4.13;0.90;;;3.60;99.90;;;;;;5018094;28;20180;-78
2020/12/29 07:42:54;;;;;;;1.20;0.70;;;3.60;99.90;;;;;;5021005;28;20181;-79
2020/12/29 07:45:21;;;;;;;1.20;0.73;;;3.60;99.90;;;;;;5022411;28;20646;-78
2020/12/29 07:47:47;;;;;;;1.10;0.63;;;3.70;99.90;;;;;;5022124;28;20239;-78
2020/12/29 07:50:13;;;;;;;1.57;0.77;;;3.70;99.90;;;;;;5022957;28;20211;-78
2020/12/29 07:52:39;;;;;;;4.30;0.83;;;3.70;99.90;;;;;;5004917;28;20254;-78
2020/12/29 07:55:06;;;;;;;2.67;0.90;;;3.80;99.90;;;;;;5023810;28;20579;-78
2020/12/29 07:57:33;;;;;;;4.37;0.80;;;3.70;99.90;;;;;;5022566;28;20218;-78
2020/12/29 08:00:15;;;;;;;1.70;0.90;;;3.80;99.90;;;;;;5022843;28;20265;-78
2020/12/29 08:02:48;;;;;;;1.00;0.90;;;3.70;99.90;;;;;;5019732;28;20536;-78
2020/12/29 08:05:14;;;;;;;1.57;0.70;;;3.80;99.90;;;;;;5020527;28;20282;-79
2020/12/29 08:07:40;;;;;;;2.30;0.77;;;3.80;99.90;;;;;;5022129;28;20192;-78
2020/12/29 08:10:06;;;;;;;3.20;1.00;;;3.90;99.90;;;;;;5022369;28;20187;-78
2020/12/29 08:12:31;;;;;;;3.20;1.10;;;3.90;99.90;;;;;;5022770;28;20187;-78
2020/12/29 08:14:57;;;;;;;2.80;1.00;;;4.00;99.90;;;;;;5021462;28;20197;-78
2020/12/29 08:17:23;;;;;;;3.73;1.00;;;4.00;99.90;;;;;;5021263;28;20208;-78
2020/12/29 08:19:59;;;;;;;2.03;1.07;;;4.10;99.90;;;;;;5021894;28;20560;-78
2020/12/29 08:22:28;;;;;;;3.20;0.70;;;4.20;99.90;;;;;;5021621;28;20171;-78
2020/12/29 08:24:54;;;;;;;3.43;0.80;;;4.20;99.90;;;;;;5021644;28;20210;-78
2020/12/29 08:27:20;;;;;;;3.00;1.20;;;4.20;99.90;;;;;;5022244;28;20268;-78
2020/12/29 08:29:46;;;;;;;3.23;0.70;;;4.20;99.90;;;;;;5021854;28;20203;-78
2020/12/29 08:32:15;;;;;;;2.27;0.80;;;4.30;99.90;;;;;;5021870;28;20180;-78
2020/12/29 08:34:46;;;;;;;2.33;0.90;;;4.30;99.90;;;;;;5020640;28;20194;-78
2020/12/29 08:37:18;;;;;;;1.73;0.70;;;4.40;99.90;;;;;;5019798;28;20239;-78
2020/12/29 08:40:08;;;;;;;2.10;0.77;;;4.50;99.90;;;;;;5020518;28;20187;-78
2020/12/29 08:42:35;;;;;;;3.23;1.20;;;4.50;99.90;;;;;;5019948;28;20517;-78
2020/12/29 08:45:08;;;;;;;5.17;1.20;;;4.60;99.90;;;;;;5020048;28;20203;-78
2020/12/29 08:47:34;;;;;;;1.87;1.00;;;4.70;99.90;;;;;;5020117;28;20195;-78
2020/12/29 08:50:19;;;;;;;1.03;0.67;;;4.70;99.90;;;;;;5019121;28;20218;-78
2020/12/29 08:52:51;;;;;;;2.07;0.90;;;4.70;99.90;;;;;;5020964;28;20171;-78
2020/12/29 08:55:26;;;;;;;1.53;0.90;;;4.70;99.90;;;;;;5020435;28;20201;-78
2020/12/29 08:57:54;;;;;;;2.03;1.10;;;4.80;99.90;;;;;;5020512;28;20198;-78
2020/12/29 09:00:20;;;;;;;1.47;0.70;;;4.90;99.90;;;;;;5017698;28;20244;-78
2020/12/29 09:02:46;;;;;;;2.30;0.90;;;4.90;99.90;;;;;;5019985;28;20176;-78
2020/12/29 09:05:12;;;;;;;4.07;0.90;;;4.90;99.90;;;;;;5020725;28;20215;-78
2020/12/29 09:07:41;;;;;;;1.30;0.70;;;4.90;99.90;;;;;;5020335;28;20180;-78
2020/12/29 09:10:08;;;;;;;3.33;0.70;;;4.90;99.90;;;;;;5018375;28;20172;-78
2020/12/29 09:12:35;;;;;;;2.87;1.10;;;5.00;99.90;;;;;;5019726;28;20174;-78
2020/12/29 09:15:08;;;;;;;1.77;0.80;;;5.00;99.90;;;;;;5021476;28;20207;-78
2020/12/29 09:17:36;;;;;;;3.00;0.60;;;5.00;99.90;;;;;;5020228;28;20632;-78
2020/12/29 09:20:19;;;;;;;1.47;0.80;;;5.00;99.90;;;;;;5021119;28;20175;-78
2020/12/29 09:22:53;;;;;;;2.83;0.90;;;5.10;99.90;;;;;;5021136;28;20228;-79
2020/12/29 09:25:44;;;;;;;1.73;0.63;;;5.10;99.90;;;;;;5021037;28;20719;-79
2020/12/29 09:28:17;;;;;;;0.60;0.40;;;5.10;99.90;;;;;;5020797;28;20175;-78
2020/12/29 09:30:47;;;;;;;2.47;0.80;;;5.00;99.90;;;;;;5020620;28;20336;-78
2020/12/29 09:33:20;;;;;;;3.50;1.00;;;5.10;99.90;;;;;;5020621;28;20192;-78
2020/12/29 09:35:49;;;;;;;2.53;0.90;;;5.10;99.90;;;;;;5022390;28;20227;-78
2020/12/29 09:38:15;;;;;;;1.77;0.70;;;5.10;99.90;;;;;;5021557;28;20229;-77
2020/12/29 09:40:41;;;;;;;2.03;0.87;;;5.20;99.90;;;;;;5021515;28;20661;-78
2020/12/29 09:43:07;;;;;;;2.50;0.90;;;5.20;99.90;;;;;;5021252;28;20199;-78
2020/12/29 09:45:33;;;;;;;3.13;0.93;;;5.20;99.90;;;;;;5019644;28;20176;-78
2020/12/29 09:47:59;;;;;;;1.47;0.67;;;5.30;99.90;;;;;;5018491;28;20186;-78
2020/12/29 09:50:25;;;;;;;1.10;0.57;;;5.30;99.90;;;;;;5018865;28;20212;-78
2020/12/29 09:52:51;;;;;;;2.43;0.90;;;5.30;99.90;;;;;;5018263;28;20180;-78
2020/12/29 09:55:17;;;;;;;1.57;0.60;;;5.30;99.90;;;;;;5018860;28;20231;-78
2020/12/29 09:57:42;;;;;;;2.20;0.63;;;5.30;99.90;;;;;;5020428;28;20199;-78
2020/12/29 10:00:08;;;;;;;1.50;0.60;;;5.30;99.90;;;;;;5018722;28;20244;-78
2020/12/29 10:02:34;;;;;;;4.27;0.70;;;5.40;99.90;;;;;;5018408;28;20270;-78
2020/12/29 10:05:00;;;;;;;1.33;0.67;;;5.40;99.90;;;;;;5042642;23;20660;-76
2020/12/29 10:07:26;;;;;;;4.23;0.83;;;5.50;99.90;;;;;;5015829;28;20698;-75
2020/12/29 10:09:51;;;;;;;1.47;0.93;;;5.50;99.90;;;;;;5016071;28;20196;-75
2020/12/29 10:12:18;;;;;;;1.40;0.60;;;5.60;99.90;;;;;;5034038;28;20186;-76
2020/12/29 10:14:44;;;;;;;2.53;1.00;;;5.60;99.90;;;;;;5039855;28;20246;-76
2020/12/29 10:17:10;;;;;;;1.53;0.50;;;5.50;99.90;;;;;;5014116;28;20173;-76
2020/12/29 10:19:36;;;;;;;1.67;0.83;;;5.60;99.90;;;;;;5011714;28;20240;-77
2020/12/29 10:22:02;;;;;;;1.80;0.83;;;5.70;99.90;;;;;;4996532;28;20176;-75
2020/12/29 10:24:29;;;;;;;5.80;1.20;;;5.80;99.90;;;;;;4996230;28;20534;-76
2020/12/29 10:26:56;;;;;;;3.20;1.00;;;5.90;99.90;;;;;;5014756;28;20191;-76
2020/12/29 10:29:22;;;;;;;3.30;1.03;;;6.00;99.90;;;;;;4997417;28;20757;-76
2020/12/29 10:31:48;;;;;;;2.53;1.00;;;6.00;99.90;;;;;;5013714;28;20644;-76
2020/12/29 10:34:16;;;;;;;2.23;0.70;;;6.10;99.90;;;;;;5013947;28;20188;-77
2020/12/29 10:36:43;;;;;;;2.57;1.00;;;6.20;99.90;;;;;;5013776;28;20281;-76
2020/12/29 10:39:09;;;;;;;2.03;0.70;;;6.30;99.90;;;;;;4995619;28;20198;-78
2020/12/29 10:41:37;;;;;;;4.37;0.80;;;6.30;99.90;;;;;;5012509;28;20180;-76
2020/12/29 10:44:05;;;;;;;1.07;0.50;;;6.40;99.90;;;;;;5013849;28;20578;-76
2020/12/29 10:46:30;;;;;;;1.63;0.60;;;6.50;99.90;;;;;;4995850;28;20205;-76
2020/12/29 10:48:56;;;;;;;2.53;0.70;;;6.40;99.90;;;;;;5013153;28;20654;-76
2020/12/29 10:51:24;;;;;;;2.67;0.60;;;6.50;99.90;;;;;;5013344;28;20182;-76
2020/12/29 10:53:51;;;;;;;3.60;0.67;;;6.60;99.90;;;;;;5013338;28;20177;-76
2020/12/29 10:56:17;;;;;;;1.00;0.70;;;6.70;99.90;;;;;;5013378;28;20209;-76
2020/12/29 10:58:43;;;;;;;2.70;0.70;;;6.80;99.90;;;;;;4995601;28;20196;-76
2020/12/29 11:01:11;;;;;;;1.53;0.60;;;7.00;99.90;;;;;;5013575;28;20294;-76
2020/12/29 11:03:37;;;;;;;3.17;0.77;;;7.30;99.90;;;;;;5013263;28;20236;-76
2020/12/29 11:06:10;;;;;;;3.33;0.80;;;7.00;99.90;;;;;;5013125;28;20215;-75
2020/12/29 11:08:36;;;;;;;1.60;0.53;;;6.90;99.90;;;;;;5012884;28;20199;-76
2020/12/29 11:11:02;;;;;;;3.17;0.67;;;6.80;99.90;;;;;;4995742;28;20189;-76
2020/12/29 11:13:27;;;;;;;1.73;0.70;;;6.80;99.90;;;;;;5013256;28;20186;-76
2020/12/29 11:15:53;;;;;;;0.80;0.63;;;7.00;99.90;;;;;;4995586;28;20206;-76
2020/12/29 11:18:18;;;;;;;2.87;0.77;;;7.20;99.90;;;;;;5013045;28;20745;-77
2020/12/29 11:20:44;;;;;;;3.97;0.90;;;;;;;;;;5013235;28;20622;-76
2020/12/29 11:23:10;;;;;;;1.80;0.73;;;7.00;99.90;;;;;;5012135;28;20214;-77
2020/12/29 11:25:36;;;;;;;2.57;1.03;;;7.10;99.90;;;;;;5012601;28;20699;-76
2020/12/29 11:28:02;;;;;;;2.90;0.80;;;7.10;99.90;;;;;;5017370;28;20216;-79
2020/12/29 11:30:27;;;;;;;2.53;0.90;;;6.90;99.90;;;;;;5025860;28;20196;-79
2020/12/29 11:32:53;;;;;;;1.30;0.83;;;7.10;99.90;;;;;;5007037;28;20197;-79
2020/12/29 11:35:19;;;;;;;1.23;0.60;;;7.10;99.90;;;;;;5025131;28;20202;-79
2020/12/29 11:37:44;;;;;;;3.50;0.80;;;7.40;99.90;;;;;;5007249;28;20190;-79
2020/12/29 11:40:10;;;;;;;2.17;1.00;;;7.30;99.90;;;;;;5025137;28;20193;-78
2020/12/29 11:42:36;;;;;;;1.63;0.50;;;7.40;99.90;;;;;;5025563;28;20183;-79
2020/12/29 11:45:05;;;;;;;1.70;0.80;;;7.30;99.90;;;;;;5024625;28;20209;-79
2020/12/29 11:47:31;;;;;;;2.00;1.10;;;7.30;99.90;;;;;;5024316;28;20183;-79
2020/12/29 11:49:57;;;;;;;4.00;0.90;;;7.30;99.90;;;;;;5023995;28;20206;-79
2020/12/29 11:52:24;;;;;;;1.23;0.70;;;7.30;99.90;;;;;;5024782;28;20206;-78
2020/12/29 11:54:50;;;;;;;1.63;0.70;;;7.10;99.90;;;;;;5005822;28;20830;-78
2020/12/29 11:57:16;;;;;;;1.03;0.70;;;7.20;99.90;;;;;;5025017;28;20217;-79
2020/12/29 11:59:42;;;;;;;2.33;0.87;;;7.10;99.90;;;;;;5002163;28;20217;-78
2020/12/29 12:02:08;;;;;;;0.77;0.50;;;7.10;99.90;;;;;;5023324;28;20179;-79
2020/12/29 12:04:33;;;;;;;2.00;0.90;;;7.10;99.90;;;;;;5006576;28;20560;-78
2020/12/29 12:06:59;;;;;;;2.80;0.97;;;7.10;99.90;;;;;;5025047;28;20597;-78
2020/12/29 12:09:25;;;;;;;2.27;0.60;;;7.00;99.90;;;;;;5025776;28;20261;-78
2020/12/29 12:11:51;;;;;;;1.53;0.50;;;7.00;99.90;;;;;;5024826;28;20268;-79
2020/12/29 12:14:17;;;;;;;2.87;0.70;;;6.80;99.90;;;;;;5006760;28;20204;-78
2020/12/29 12:16:43;;;;;;;0.80;0.60;;;6.80;99.90;;;;;;5025405;28;20675;-79
2020/12/29 12:19:09;;;;;;;1.37;0.80;;;6.80;99.90;;;;;;5024624;28;20705;-79
2020/12/29 12:21:35;;;;;;;1.43;1.17;;;6.80;99.90;;;;;;5025041;28;20197;-79
2020/12/29 12:24:01;;;;;;;1.20;0.77;;;6.70;99.90;;;;;;5036252;28;20250;-79
2020/12/29 12:26:28;;;;;;;2.50;0.90;;;6.80;99.90;;;;;;5021956;28;20209;-78
2020/12/29 12:28:55;;;;;;;3.97;1.13;;;6.70;99.90;;;;;;5022752;28;20653;-78
2020/12/29 12:31:22;;;;;;;1.67;0.57;;;6.70;99.90;;;;;;5024403;28;20185;-78
2020/12/29 12:33:48;;;;;;;3.60;1.20;;;6.60;99.90;;;;;;5023533;28;20251;-77
2020/12/29 12:36:15;;;;;;;5.30;1.03;;;6.70;99.90;;;;;;5023941;28;20212;-78
2020/12/29 12:38:42;;;;;;;3.13;0.80;;;6.70;99.90;;;;;;5024848;28;20214;-78
2020/12/29 12:41:09;;;;;;;2.60;0.80;;;6.70;99.90;;;;;;5023657;28;20656;-79
2020/12/29 12:43:34;;;;;;;1.00;0.67;;;6.80;99.90;;;;;;5004348;28;20280;-79
2020/12/29 12:46:00;;;;;;;2.47;1.10;;;6.70;99.90;;;;;;5023434;28;20605;-79
2020/12/29 12:48:26;;;;;;;3.03;0.83;;;6.60;99.90;;;;;;5005690;28;20229;-78
2020/12/29 12:50:52;;;;;;;6.10;1.50;;;6.60;99.90;;;;;;5024179;28;20266;-78
2020/12/29 12:53:17;;;;;;;16.57;1.53;;;6.60;99.90;;;;;;4988920;28;20216;-78
2020/12/29 12:55:43;;;;;;;4.87;1.20;;;6.70;99.90;;;;;;5022447;28;20205;-78
2020/12/29 12:58:09;;;;;;;2.63;0.83;;;6.50;99.90;;;;;;5022232;28;20209;-77
2020/12/29 13:00:34;;;;;;;1.03;0.80;;;6.70;99.90;;;;;;5023818;28;20191;-78